createdAt,value
2023-04-13T00:00:57.203Z,1.4
2023-04-13T00:06:50.255Z,1.1
2023-04-13T00:12:42.967Z,0.8
2023-04-13T00:18:35.405Z,0.4
2023-04-13T00:24:26.196Z,0.3
2023-04-13T00:30:17.617Z,0.1
2023-04-13T00:36:09.780Z,-0.1
2023-04-13T00:42:00.630Z,-0.3
2023-04-13T00:47:52.799Z,-0.5
2023-04-13T00:53:44.865Z,-0.6
2023-04-13T00:59:35.720Z,-0.8
2023-04-13T01:05:29.413Z,-0.9
2023-04-13T01:23:42.119Z,-1
2023-04-13T01:29:34.073Z,-1
2023-04-13T01:35:10.408Z,-1
2023-04-13T01:41:02.277Z,-1.1
2023-04-13T01:46:53.574Z,-1.1
2023-04-13T01:58:21.059Z,-0.9
2023-04-13T02:04:15.379Z,-1
2023-04-13T02:10:06.464Z,-1.1
2023-04-13T02:15:57.662Z,-1.2
2023-04-13T02:21:49.308Z,-1.3
2023-04-13T02:27:40.935Z,-1.3
2023-04-13T02:33:32.891Z,-1.4
2023-04-13T02:39:24.420Z,-1.4
2023-04-13T02:45:15.241Z,-1.6
2023-04-13T02:51:06.917Z,-1.6
2023-04-13T02:56:58.284Z,-1.7
2023-04-13T03:02:49.659Z,-1.8
2023-04-13T03:08:42.758Z,-1.8
2023-04-13T03:14:35.907Z,-1.8
2023-04-13T03:20:11.533Z,-1.8
2023-04-13T03:26:03.985Z,-1.7
2023-04-13T03:31:55.679Z,-1.8
2023-04-13T03:37:47.746Z,-1.8
2023-04-13T03:43:39.975Z,-1.8
2023-04-13T03:49:16.947Z,-1.9
2023-04-13T03:55:08.278Z,-1.9
2023-04-13T04:01:00.205Z,-1.9
2023-04-13T04:06:53.796Z,-1.9
2023-04-13T04:12:48.111Z,-1.9
2023-04-13T04:18:42.657Z,-1.8
2023-04-13T04:24:34.567Z,-1.7
2023-04-13T04:30:25.779Z,-1.6
2023-04-13T04:36:17.697Z,-1.3
2023-04-13T04:42:10.432Z,-1
2023-04-13T04:47:46.596Z,-0.6
2023-04-13T04:53:22.883Z,-0.3
2023-04-13T04:59:14.909Z,0.1
2023-04-13T05:04:51.491Z,0.7
2023-04-13T05:10:43.761Z,2.6
2023-04-13T05:16:35.932Z,4.8
2023-04-13T05:22:29.439Z,6.9
2023-04-13T05:28:21.339Z,9.5
2023-04-13T05:34:15.942Z,12.3
2023-04-13T05:40:06.331Z,15.3
2023-04-13T05:45:59.274Z,18.3
2023-04-13T05:51:51.333Z,21.2
2023-04-13T05:57:41.924Z,24.1
2023-04-13T06:03:37.698Z,27
2023-04-13T06:09:31.288Z,30
2023-04-13T06:15:22.359Z,32.9
2023-04-13T06:21:15.499Z,36.2
2023-04-13T06:27:07.780Z,39.6
2023-04-13T06:32:59.796Z,42.8
2023-04-13T06:38:52.046Z,45.9
2023-04-13T06:44:57.236Z,49.3
2023-04-13T06:50:33.279Z,54.4
2023-04-13T06:56:24.625Z,47.4
2023-04-13T07:02:30.856Z,45.5
2023-04-13T07:08:25.829Z,49.6
2023-04-13T07:14:18.012Z,55
2023-04-13T07:19:55.232Z,47.3
2023-04-13T07:25:45.771Z,48
2023-04-13T07:31:37.736Z,56.2
2023-04-13T07:37:33.629Z,49.9
2023-04-13T07:43:27.857Z,47.3
2023-04-13T07:49:20.126Z,56.3
2023-04-13T07:55:12.110Z,51.6
2023-04-13T08:01:02.562Z,47.8
2023-04-13T08:06:59.171Z,57
2023-04-13T08:12:51.277Z,55.6
2023-04-13T08:18:30.432Z,51.5
2023-04-13T08:24:24.136Z,51.8
2023-04-13T08:30:16.976Z,52.4
2023-04-13T08:36:08.936Z,53.1
2023-04-13T08:42:02.358Z,54
2023-04-13T08:47:54.280Z,54.5
2023-04-13T08:53:55.232Z,55.2
2023-04-13T08:59:38.701Z,56.1
2023-04-13T09:05:48.321Z,56.8
2023-04-13T09:11:39.171Z,57.4
2023-04-13T09:17:15.250Z,57.6
2023-04-13T09:23:06.800Z,57.5
2023-04-13T09:31:24.688Z,59
2023-04-13T09:37:11.747Z,59.5
2023-04-13T09:42:17.801Z,60.1
2023-04-13T09:47:38.295Z,60.5
2023-04-13T09:53:15.766Z,61
2023-04-13T09:59:07.746Z,61.3
2023-04-13T10:04:44.469Z,61.4
2023-04-13T10:10:33.525Z,61.8
2023-04-13T10:16:34.320Z,62.3
2023-04-13T10:22:28.791Z,62.9
2023-04-13T10:28:37.021Z,62.6
2023-04-13T10:34:17.894Z,61.4
2023-04-13T10:40:13.101Z,61.8
2023-04-13T10:46:07.360Z,62.1
2023-04-13T10:51:28.793Z,62.5
2023-04-13T10:57:07.741Z,63
2023-04-13T11:03:18.105Z,63.3
2023-04-13T11:08:53.065Z,62.8
2023-04-13T11:14:38.859Z,63.1
2023-04-13T11:20:15.283Z,63.1
2023-04-13T11:25:55.835Z,63.3
2023-04-13T11:31:16.002Z,63.6
2023-04-13T11:36:52.352Z,62.7
2023-04-13T11:42:42.770Z,61.1
2023-04-13T11:48:34.579Z,61.2
2023-04-13T11:54:27.666Z,58.6
2023-04-13T12:00:24.861Z,55.1
2023-04-13T12:07:14.081Z,63.7
2023-04-13T12:14:58.080Z,59.6
2023-04-13T12:22:30.419Z,56.9
2023-04-13T12:29:06.093Z,62.4
2023-04-13T12:34:57.355Z,63.8
2023-04-13T12:40:51.422Z,59.4
2023-04-13T12:46:42.275Z,58.3
2023-04-13T12:52:34.782Z,61.9
2023-04-13T12:58:26.956Z,63.6
2023-04-13T13:04:27.864Z,56.3
2023-04-13T13:10:29.827Z,57.6
2023-04-13T13:16:23.030Z,60.3
2023-04-13T13:22:29.688Z,60.9
2023-04-13T13:29:42.137Z,53
2023-04-13T13:35:34.904Z,49.4
2023-04-13T13:41:11.827Z,46.4
2023-04-13T13:47:04.771Z,44.4
2023-04-13T13:52:51.798Z,42
2023-04-13T13:58:50.132Z,39.3
2023-04-13T14:04:26.908Z,41
2023-04-13T14:10:18.982Z,44.8
2023-04-13T14:16:05.992Z,46.3
2023-04-13T14:22:09.073Z,44.1
2023-04-13T14:28:00.352Z,43.9
2023-04-13T14:33:52.335Z,44.7
2023-04-13T14:39:45.625Z,43.2
2023-04-13T14:45:37.503Z,41
2023-04-13T14:51:30.313Z,38.8
2023-04-13T14:57:21.946Z,37.1
2023-04-13T15:03:15.578Z,34.9
2023-04-13T15:09:10.873Z,33.1
2023-04-13T15:15:04.425Z,31.6
2023-04-13T15:20:57.590Z,30.6
2023-04-13T15:26:49.422Z,29.6
2023-04-13T15:32:41.859Z,29
2023-04-13T15:38:34.926Z,28.3
2023-04-13T15:44:26.242Z,27.9
2023-04-13T15:50:18.603Z,27.6
2023-04-13T15:56:10.498Z,27.4
2023-04-13T16:02:02.659Z,27.1
2023-04-13T16:07:58.266Z,26.6
2023-04-13T16:14:04.722Z,26.2
2023-04-13T16:19:57.613Z,25.8
2023-04-13T16:25:49.715Z,25.3
2023-04-13T16:31:41.673Z,24.6
2023-04-13T16:37:49.706Z,23.8
2023-04-13T16:43:42.613Z,23.1
2023-04-13T16:49:35.719Z,22.4
2023-04-13T16:55:11.761Z,21.8
2023-04-13T17:01:04.910Z,21.3
2023-04-13T17:07:16.017Z,20.7
2023-04-13T17:13:07.609Z,20.1
2023-04-13T17:18:28.858Z,19.7
2023-04-13T17:24:21.937Z,19.1
2023-04-13T17:30:13.851Z,18.6
2023-04-13T17:36:09.223Z,18.2
2023-04-13T17:42:01.838Z,17.9
2023-04-13T17:47:54.401Z,17.8
2023-04-13T17:53:46.650Z,17.6
2023-04-13T17:59:40.551Z,17.5
2023-04-13T18:05:20.782Z,17.4
2023-04-13T18:11:14.259Z,17.4
2023-04-13T18:16:51.555Z,17.3
2023-04-13T18:22:13.998Z,17.2
2023-04-13T18:27:35.294Z,17.3
2023-04-13T18:33:27.970Z,17.1
2023-04-13T18:39:05.843Z,17.1
2023-04-13T18:50:03.562Z,16.9
2023-04-13T18:55:55.550Z,16.9
2023-04-13T19:01:32.236Z,16.8
2023-04-13T19:07:14.325Z,16.8
2023-04-13T19:13:06.685Z,16.6
2023-04-13T19:18:58.774Z,16.6
2023-04-13T19:24:52.698Z,16.4
2023-04-13T19:30:45.382Z,16
2023-04-13T19:36:22.734Z,15.6
2023-04-13T19:42:15.883Z,15.1
2023-04-13T19:48:08.820Z,14.8
2023-04-13T19:54:00.995Z,14.6
2023-04-13T19:59:53.318Z,14.4
2023-04-13T20:05:47.709Z,14.2
2023-04-13T20:11:39.035Z,14
2023-04-13T20:17:31.541Z,13.9
2023-04-13T20:23:24.448Z,13.9
2023-04-13T20:29:18.658Z,13.8
2023-04-13T20:35:11.952Z,13.7
2023-04-13T20:40:48.605Z,13.5
2023-04-13T20:46:40.694Z,13.4
2023-04-13T20:53:18.916Z,13.2
2023-04-13T20:59:10.495Z,12.9
2023-04-13T21:05:04.026Z,12.7
2023-04-13T21:10:56.311Z,12.4
2023-04-13T21:16:49.222Z,12.1
2023-04-13T21:22:44.184Z,11.9
2023-04-13T21:28:35.909Z,11.6
2023-04-13T21:34:11.874Z,11.3
2023-04-13T21:39:57.195Z,11.1
2023-04-13T21:45:57.228Z,10.8
2023-04-13T21:51:48.288Z,10.6
2023-04-13T21:57:42.512Z,10.5
2023-04-13T22:03:36.321Z,10.3
2023-04-13T22:09:42.527Z,10.1
2023-04-13T22:15:33.935Z,9.9
2023-04-13T22:21:28.349Z,9.8
2023-04-13T22:27:03.643Z,9.6
2023-04-13T22:32:56.778Z,9.5
2023-04-13T22:38:48.964Z,9.4
2023-04-13T22:44:40.179Z,9.3
2023-04-13T22:50:31.571Z,9.2
2023-04-13T22:56:23.664Z,9.1
2023-04-13T23:01:59.900Z,9
2023-04-13T23:07:56.779Z,8.9
2023-04-13T23:13:33.513Z,8.9
2023-04-13T23:19:10.427Z,8.9
2023-04-13T23:25:02.736Z,8.8
2023-04-13T23:30:54.657Z,8.8
2023-04-13T23:36:46.416Z,8.8
2023-04-13T23:42:37.791Z,8.9
2023-04-13T23:48:29.809Z,9
2023-04-13T23:54:21.374Z,9
